createdAt,value
2022-10-02T00:00:55.234Z,100.00
2022-10-02T00:05:09.374Z,100.00
2022-10-02T00:09:17.972Z,100.00
2022-10-02T00:13:24.953Z,100.00
2022-10-02T00:17:34.334Z,100.00
2022-10-02T00:22:14.625Z,100.00
2022-10-02T00:26:25.008Z,100.00
2022-10-02T00:30:28.209Z,100.00
2022-10-02T00:34:49.292Z,100.00
2022-10-02T00:39:01.865Z,100.00
2022-10-02T00:43:22.529Z,100.00
2022-10-02T00:47:34.737Z,100.00
2022-10-02T00:51:56.410Z,100.00
2022-10-02T00:56:27.975Z,100.00
2022-10-02T01:00:29.467Z,100.00
2022-10-02T01:04:36.973Z,100.00
2022-10-02T01:08:39.111Z,100.00
2022-10-02T01:12:40.636Z,100.00
2022-10-02T01:16:43.149Z,100.00
2022-10-02T01:20:51.382Z,100.00
2022-10-02T01:24:54.496Z,100.00
2022-10-02T01:28:55.960Z,100.00
2022-10-02T01:33:00.486Z,100.00
2022-10-02T01:37:02.955Z,100.00
2022-10-02T01:41:04.344Z,100.00
2022-10-02T01:45:07.898Z,100.00
2022-10-02T01:49:35.246Z,100.00
2022-10-02T01:53:45.227Z,100.00
2022-10-02T01:58:05.358Z,100.00
2022-10-02T02:02:42.073Z,100.00
2022-10-02T02:06:59.281Z,100.00
2022-10-02T02:11:14.278Z,100.00
2022-10-02T02:15:41.116Z,100.00
2022-10-02T02:19:48.734Z,100.00
2022-10-02T02:23:51.962Z,100.00
2022-10-02T02:27:57.300Z,100.00
2022-10-02T02:32:02.767Z,100.00
2022-10-02T02:36:12.561Z,100.00
2022-10-02T02:40:19.882Z,100.00
2022-10-02T02:44:30.087Z,100.00
2022-10-02T02:48:51.255Z,100.00
2022-10-02T02:52:59.258Z,100.00
2022-10-02T02:57:02.179Z,100.00
2022-10-02T03:01:03.831Z,100.00
2022-10-02T03:05:12.967Z,100.00
2022-10-02T03:09:20.757Z,100.00
2022-10-02T03:13:55.043Z,100.00
2022-10-02T03:18:15.582Z,100.00
2022-10-02T03:23:15.521Z,100.00
2022-10-02T03:27:26.378Z,100.00
2022-10-02T03:31:32.754Z,100.00
2022-10-02T03:35:34.612Z,100.00
2022-10-02T03:39:43.358Z,100.00
2022-10-02T03:43:44.752Z,100.00
2022-10-02T03:47:46.703Z,100.00
2022-10-02T03:51:48.099Z,100.00
2022-10-02T03:56:00.433Z,100.00
2022-10-02T04:00:09.658Z,100.00
2022-10-02T04:04:26.703Z,100.00
2022-10-02T04:08:44.986Z,100.00
2022-10-02T04:12:52.017Z,100.00
2022-10-02T04:17:25.598Z,100.00
2022-10-02T04:21:54.549Z,100.00
2022-10-02T04:26:07.634Z,100.00
2022-10-02T04:30:15.293Z,100.00
2022-10-02T04:34:16.723Z,100.00
2022-10-02T04:38:36.266Z,100.00
2022-10-02T04:42:57.636Z,100.00
2022-10-02T04:47:14.995Z,100.00
2022-10-02T04:51:34.331Z,100.00
2022-10-02T04:55:51.530Z,100.00
2022-10-02T05:00:10.541Z,100.00
2022-10-02T05:04:26.412Z,100.00
2022-10-02T05:08:52.065Z,100.00
2022-10-02T05:12:59.496Z,100.00
2022-10-02T05:17:08.326Z,100.00
2022-10-02T05:21:30.901Z,100.00
2022-10-02T05:25:51.968Z,100.00
2022-10-02T05:30:08.577Z,100.00
2022-10-02T05:34:25.246Z,100.00
2022-10-02T05:38:45.489Z,100.00
2022-10-02T05:42:52.671Z,100.00
2022-10-02T05:47:15.002Z,100.00
2022-10-02T05:51:23.829Z,100.00
2022-10-02T05:55:27.972Z,100.00
2022-10-02T05:59:41.267Z,100.00
2022-10-02T06:03:55.675Z,100.00
2022-10-02T06:08:00.685Z,100.00
2022-10-02T06:12:07.672Z,100.00
2022-10-02T06:16:23.567Z,100.00
2022-10-02T06:20:37.634Z,100.00
2022-10-02T06:24:57.638Z,100.00
2022-10-02T06:29:03.771Z,100.00
2022-10-02T06:33:26.165Z,100.00
2022-10-02T06:37:36.482Z,100.00
2022-10-02T06:42:15.212Z,100.00
2022-10-02T06:46:28.017Z,100.00
2022-10-02T06:50:49.930Z,100.00
2022-10-02T06:55:09.770Z,100.00
2022-10-02T06:59:35.801Z,100.00
2022-10-02T07:03:46.442Z,100.00
2022-10-02T07:08:01.006Z,100.00
2022-10-02T07:12:41.207Z,100.00
2022-10-02T07:16:50.428Z,100.00
2022-10-02T07:21:16.577Z,100.00
2022-10-02T07:25:33.002Z,100.00
2022-10-02T07:29:52.709Z,100.00
2022-10-02T07:34:27.078Z,100.00
2022-10-02T07:38:59.571Z,100.00
2022-10-02T07:43:10.022Z,100.00
2022-10-02T07:47:48.405Z,100.00
2022-10-02T07:52:07.973Z,100.00
2022-10-02T07:56:19.815Z,100.00
2022-10-02T08:00:24.349Z,100.00
2022-10-02T08:04:36.653Z,100.00
2022-10-02T08:08:49.363Z,100.00
2022-10-02T08:13:00.081Z,100.00
2022-10-02T08:17:10.511Z,100.00
2022-10-02T08:21:20.321Z,100.00
2022-10-02T08:25:46.138Z,100.00
2022-10-02T08:29:54.834Z,100.00
2022-10-02T08:33:57.541Z,100.00
2022-10-02T08:38:31.065Z,100.00
2022-10-02T08:42:38.199Z,100.00
2022-10-02T08:47:01.196Z,100.00
2022-10-02T08:51:24.350Z,100.00
2022-10-02T08:55:48.252Z,100.00
2022-10-02T09:00:10.145Z,100.00
2022-10-02T09:04:31.478Z,100.00
2022-10-02T09:08:47.798Z,100.00
2022-10-02T09:13:08.320Z,100.00
2022-10-02T09:17:44.918Z,100.00
2022-10-02T09:22:05.976Z,100.00
2022-10-02T09:26:19.509Z,100.00
2022-10-02T09:30:39.354Z,100.00
2022-10-02T09:35:18.029Z,100.00
2022-10-02T09:39:51.674Z,100.00
2022-10-02T09:44:20.763Z,100.00
2022-10-02T09:48:54.437Z,100.00
2022-10-02T09:53:30.442Z,100.00
2022-10-02T09:57:51.533Z,100.00
2022-10-02T10:02:02.062Z,100.00
2022-10-02T10:06:28.729Z,100.00
2022-10-02T10:10:33.019Z,100.00
2022-10-02T10:14:48.097Z,100.00
2022-10-02T10:18:59.064Z,100.00
2022-10-02T10:23:12.792Z,100.00
2022-10-02T10:27:51.352Z,100.00
2022-10-02T10:32:18.864Z,100.00
2022-10-02T10:37:23.718Z,100.00
2022-10-02T10:41:47.601Z,100.00
2022-10-02T10:46:02.831Z,100.00
2022-10-02T10:50:28.420Z,100.00
2022-10-02T10:54:56.247Z,100.00
2022-10-02T10:59:26.658Z,100.00
2022-10-02T11:03:34.017Z,100.00
2022-10-02T11:08:26.648Z,100.00
2022-10-02T11:13:01.674Z,100.00
2022-10-02T11:17:03.008Z,100.00
2022-10-02T11:21:22.360Z,100.00
2022-10-02T11:25:26.604Z,100.00
2022-10-02T11:29:40.250Z,100.00
2022-10-02T11:34:02.843Z,100.00
2022-10-02T11:38:35.388Z,100.00
2022-10-02T11:42:52.942Z,100.00
2022-10-02T11:47:19.047Z,100.00
2022-10-02T11:51:52.177Z,100.00
2022-10-02T11:56:12.782Z,100.00
2022-10-02T12:00:56.480Z,100.00
2022-10-02T12:05:21.726Z,100.00
2022-10-02T12:09:45.224Z,100.00
2022-10-02T12:13:52.688Z,100.00
2022-10-02T12:18:21.869Z,100.00
2022-10-02T12:23:07.856Z,100.00
2022-10-02T12:27:27.684Z,100.00
2022-10-02T12:31:38.573Z,100.00
2022-10-02T12:36:05.389Z,100.00
2022-10-02T12:40:34.025Z,100.00
2022-10-02T12:45:19.181Z,100.00
2022-10-02T12:49:38.473Z,100.00
2022-10-02T12:53:53.704Z,98.35
2022-10-02T12:58:10.193Z,100.00
2022-10-02T13:03:01.591Z,100.00
2022-10-02T13:07:13.616Z,100.00
2022-10-02T13:11:40.641Z,100.00
2022-10-02T13:16:06.645Z,100.00
2022-10-02T13:20:20.450Z,100.00
2022-10-02T13:24:30.945Z,100.00
2022-10-02T13:28:47.136Z,100.00
2022-10-02T13:33:11.046Z,91.98
2022-10-02T13:37:19.042Z,95.82
2022-10-02T13:41:51.130Z,95.07
2022-10-02T13:46:18.231Z,96.44
2022-10-02T13:50:34.517Z,94.09
2022-10-02T13:55:02.411Z,92.27
2022-10-02T13:59:51.904Z,88.57
2022-10-02T14:04:20.964Z,88.02
2022-10-02T14:08:59.847Z,83.51
2022-10-02T14:13:10.793Z,84.75
2022-10-02T14:17:26.812Z,80.97
2022-10-02T14:21:40.880Z,82.68
2022-10-02T14:26:10.991Z,77.70
2022-10-02T14:30:37.926Z,77.10
2022-10-02T14:34:54.804Z,75.14
2022-10-02T14:39:27.667Z,76.53
2022-10-02T14:43:51.552Z,78.66
2022-10-02T14:48:23.284Z,79.42
2022-10-02T14:52:30.742Z,78.35
2022-10-02T14:56:51.092Z,77.35
2022-10-02T15:01:10.967Z,80.49
2022-10-02T15:05:49.966Z,82.08
2022-10-02T15:10:16.191Z,84.77
2022-10-02T15:14:24.565Z,85.98
2022-10-02T15:18:55.097Z,85.37
2022-10-02T15:23:03.227Z,87.29
2022-10-02T15:27:27.299Z,88.02
2022-10-02T15:31:31.702Z,89.26
2022-10-02T15:36:10.561Z,90.39
2022-10-02T15:40:30.757Z,91.22
2022-10-02T15:44:54.019Z,91.72
2022-10-02T15:49:23.854Z,93.13
2022-10-02T15:53:54.523Z,94.99
2022-10-02T15:58:08.331Z,97.09
2022-10-02T16:02:25.376Z,99.59
2022-10-02T16:06:50.683Z,100.00
2022-10-02T16:11:13.504Z,100.00
2022-10-02T16:15:25.388Z,100.00
2022-10-02T16:19:48.380Z,100.00
2022-10-02T16:23:58.223Z,100.00
2022-10-02T16:28:28.335Z,100.00
2022-10-02T16:33:06.538Z,100.00
2022-10-02T16:37:25.241Z,100.00
2022-10-02T16:41:41.236Z,100.00
2022-10-02T16:45:55.154Z,100.00
2022-10-02T16:50:13.103Z,100.00
2022-10-02T16:54:53.244Z,100.00
2022-10-02T16:59:15.851Z,100.00
2022-10-02T17:03:37.056Z,100.00
2022-10-02T17:07:55.916Z,100.00
2022-10-02T17:12:17.868Z,100.00
2022-10-02T17:16:37.924Z,100.00
2022-10-02T17:20:44.340Z,100.00
2022-10-02T17:25:06.903Z,100.00
2022-10-02T17:29:16.907Z,100.00
2022-10-02T17:33:26.972Z,100.00
2022-10-02T17:37:46.647Z,100.00
2022-10-02T17:42:09.828Z,100.00
2022-10-02T17:46:36.237Z,100.00
2022-10-02T17:50:55.887Z,100.00
2022-10-02T17:55:34.639Z,100.00
2022-10-02T17:59:48.336Z,100.00
2022-10-02T18:04:11.412Z,100.00
2022-10-02T18:08:29.823Z,100.00
2022-10-02T18:12:51.654Z,100.00
2022-10-02T18:17:06.395Z,100.00
2022-10-02T18:21:25.949Z,100.00
2022-10-02T18:25:52.099Z,100.00
2022-10-02T18:30:26.046Z,100.00
2022-10-02T18:34:58.378Z,100.00
2022-10-02T18:39:17.522Z,100.00
2022-10-02T18:43:41.157Z,100.00
2022-10-02T18:47:55.378Z,100.00
2022-10-02T18:52:18.423Z,100.00
2022-10-02T18:56:43.298Z,100.00
2022-10-02T19:01:00.886Z,100.00
2022-10-02T19:05:24.156Z,100.00
2022-10-02T19:09:30.644Z,100.00
2022-10-02T19:13:38.791Z,100.00
2022-10-02T19:17:40.209Z,100.00
2022-10-02T19:21:42.024Z,100.00
2022-10-02T19:25:46.834Z,100.00
2022-10-02T19:29:55.941Z,100.00
2022-10-02T19:34:03.453Z,100.00
2022-10-02T19:38:13.610Z,100.00
2022-10-02T19:42:37.429Z,100.00
2022-10-02T19:46:48.472Z,100.00
2022-10-02T19:50:52.586Z,100.00
2022-10-02T19:54:54.495Z,100.00
2022-10-02T19:59:01.223Z,100.00
2022-10-02T20:03:06.696Z,100.00
2022-10-02T20:07:16.332Z,100.00
2022-10-02T20:11:38.515Z,100.00
2022-10-02T20:16:05.111Z,100.00
2022-10-02T20:20:12.847Z,100.00
2022-10-02T20:24:22.441Z,100.00
2022-10-02T20:28:27.560Z,100.00
2022-10-02T20:32:34.808Z,100.00
2022-10-02T20:36:52.777Z,100.00
2022-10-02T20:40:57.128Z,100.00
2022-10-02T20:44:58.567Z,100.00
2022-10-02T20:49:27.606Z,100.00
2022-10-02T20:54:09.215Z,100.00
2022-10-02T20:58:48.023Z,100.00
2022-10-02T21:03:17.571Z,100.00
2022-10-02T21:07:24.914Z,100.00
2022-10-02T21:12:00.887Z,100.00
2022-10-02T21:16:25.286Z,100.00
2022-10-02T21:20:58.199Z,100.00
2022-10-02T21:25:18.202Z,100.00
2022-10-02T21:29:57.054Z,100.00
2022-10-02T21:34:23.157Z,100.00
2022-10-02T21:38:43.293Z,100.00
2022-10-02T21:42:56.374Z,100.00
2022-10-02T21:47:12.921Z,100.00
2022-10-02T21:51:37.831Z,100.00
2022-10-02T21:55:59.965Z,100.00
2022-10-02T22:00:16.262Z,100.00
2022-10-02T22:04:26.537Z,100.00
2022-10-02T22:08:43.650Z,100.00
2022-10-02T22:13:11.838Z,100.00
2022-10-02T22:17:25.928Z,100.00
2022-10-02T22:21:42.583Z,100.00
2022-10-02T22:25:47.183Z,100.00
2022-10-02T22:29:51.234Z,100.00
2022-10-02T22:34:11.399Z,100.00
2022-10-02T22:38:27.956Z,100.00
2022-10-02T22:42:45.272Z,100.00
2022-10-02T22:47:00.253Z,100.00
2022-10-02T22:51:22.828Z,100.00
2022-10-02T22:55:29.783Z,100.00
2022-10-02T22:59:52.803Z,100.00
2022-10-02T23:04:16.563Z,100.00
2022-10-02T23:08:36.557Z,100.00
2022-10-02T23:12:51.586Z,100.00
2022-10-02T23:17:13.571Z,100.00
2022-10-02T23:21:45.861Z,100.00
2022-10-02T23:26:03.358Z,100.00
2022-10-02T23:30:11.818Z,100.00
2022-10-02T23:34:34.461Z,100.00
2022-10-02T23:39:02.504Z,100.00
2022-10-02T23:43:06.029Z,100.00
2022-10-02T23:47:29.347Z,100.00
2022-10-02T23:51:49.434Z,100.00
2022-10-02T23:56:27.936Z,100.00
